Time;durP1;ratioP1;P1;durP2;ratioP2;P2;SDS_P1;SDS_P2;PMS_P1;PMS_P2;Temp;Humidity;BMP_temperature;BMP_pressure;BME280_temperature;BME280_humidity;BME280_pressure;Samples;Min_cycle;Max_cycle;Signal;HPM_P1;HPM_P2
2022/11/17 05:31:10;;;;;;;7.35;3.42;;;14.90;69.50;;;;;;4827901;29;20362;-75
2022/11/17 05:33:36;;;;;;;3.33;3.00;;;14.80;70.00;;;;;;4828135;29;20476;-76
2022/11/17 05:36:05;;;;;;;8.65;3.42;;;14.70;69.90;;;;;;4812798;29;20129;-83
2022/11/17 05:38:31;;;;;;;8.43;4.43;;;14.70;70.10;;;;;;4828849;29;20075;-73
2022/11/17 05:40:56;;;;;;;6.43;3.50;;;14.80;71.40;;;;;;4828694;29;20058;-76
2022/11/17 05:43:22;;;;;;;11.07;4.18;;;14.80;71.20;;;;;;4828700;29;20043;-75
2022/11/17 05:45:48;;;;;;;7.57;3.28;;;14.80;71.20;;;;;;4813348;29;20099;-76
2022/11/17 05:48:14;;;;;;;10.10;3.13;;;14.80;70.80;;;;;;4828603;29;20422;-75
2022/11/17 05:50:40;;;;;;;6.30;2.40;;;14.80;70.90;;;;;;4828933;29;20063;-77
2022/11/17 05:53:06;;;;;;;11.82;3.20;;;15.00;71.30;;;;;;4828292;29;20477;-76
2022/11/17 05:55:31;;;;;;;4.53;2.17;;;15.10;71.30;;;;;;4828960;29;20099;-75
2022/11/17 05:58:10;;;;;;;10.88;2.38;;;15.20;71.30;;;;;;4813193;29;20082;-74
2022/11/17 06:00:39;;;;;;;11.20;2.47;;;15.40;71.20;;;;;;4827908;29;20339;-75
2022/11/17 06:03:10;;;;;;;12.77;2.45;;;15.40;71.30;;;;;;4828289;29;20054;-75
2022/11/17 06:05:36;;;;;;;9.30;2.75;;;15.50;71.50;;;;;;4827954;29;20154;-76
2022/11/17 06:08:02;;;;;;;12.05;2.60;;;15.50;71.50;;;;;;4813069;29;20115;-78
2022/11/17 06:10:28;;;;;;;19.20;2.97;;;15.60;71.90;;;;;;4828267;29;20046;-76
2022/11/17 06:12:54;;;;;;;7.68;2.00;;;15.60;72.20;;;;;;4828354;29;20058;-78
2022/11/17 06:15:19;;;;;;;2.65;1.50;;;15.60;72.60;;;;;;4828472;29;20053;-78
2022/11/17 06:17:57;;;;;;;6.63;2.42;;;15.60;72.60;;;;;;4828208;29;20061;-77
2022/11/17 06:20:29;;;;;;;13.60;2.20;;;15.60;72.80;;;;;;4828409;29;20057;-79
2022/11/17 06:22:58;;;;;;;8.50;2.40;;;15.60;72.70;;;;;;4828038;29;20042;-78
2022/11/17 06:25:25;;;;;;;15.85;2.83;;;15.60;72.60;;;;;;4828239;29;20101;-78
2022/11/17 06:27:52;;;;;;;19.88;2.97;;;15.60;73.00;;;;;;4809485;29;20420;-78
2022/11/17 06:30:18;;;;;;;9.18;2.28;;;15.60;72.80;;;;;;4805893;29;20047;-76
2022/11/17 06:32:45;;;;;;;10.50;2.60;;;15.60;73.30;;;;;;4827215;29;20365;-76
2022/11/17 06:35:13;;;;;;;21.33;3.35;;;15.60;73.30;;;;;;4811845;29;20382;-74
2022/11/17 06:37:39;;;;;;;13.70;3.35;;;15.60;73.00;;;;;;4827778;29;20133;-75
2022/11/17 06:40:05;;;;;;;6.72;2.55;;;15.60;72.20;;;;;;4827947;29;20133;-73
2022/11/17 06:45:16;;;;;;;6.93;2.45;;;15.60;71.40;;;;;;4848254;29;20054;-72
2022/11/17 06:47:41;;;;;;;8.32;3.20;;;15.60;70.20;;;;;;4848909;29;20089;-72
2022/11/17 06:50:08;;;;;;;12.10;2.75;;;15.50;69.50;;;;;;4848822;29;20429;-75
2022/11/17 06:52:34;;;;;;;12.02;3.22;;;15.50;69.60;;;;;;4848483;29;20053;-73
2022/11/17 06:54:59;;;;;;;10.18;2.55;;;15.50;69.80;;;;;;4859099;29;20497;-79
2022/11/17 06:57:25;;;;;;;16.95;2.97;;;15.50;70.10;;;;;;4846155;29;20461;-75
2022/11/17 06:59:51;;;;;;;9.13;3.08;;;15.50;70.10;;;;;;4845814;29;20050;-76
2022/11/17 07:02:17;;;;;;;18.17;4.18;;;15.40;70.50;;;;;;4844904;29;20080;-75
2022/11/17 07:04:43;;;;;;;23.65;4.75;;;15.40;70.80;;;;;;4845911;29;20162;-75
2022/11/17 07:07:11;;;;;;;21.23;3.33;;;15.40;71.10;;;;;;4845944;29;20137;-74
2022/11/17 07:09:37;;;;;;;19.30;3.50;;;15.40;71.40;;;;;;4846089;29;20137;-74
2022/11/17 07:12:02;;;;;;;14.90;3.10;;;15.30;71.70;;;;;;4844593;29;20186;-75
2022/11/17 07:14:28;;;;;;;20.02;3.55;;;15.30;71.70;;;;;;4845206;29;20098;-75
2022/11/17 07:16:54;;;;;;;14.73;3.33;;;15.30;71.80;;;;;;4845178;29;20150;-76
2022/11/17 07:19:20;;;;;;;17.25;2.65;;;15.30;71.90;;;;;;4812381;29;20092;-77
2022/11/17 07:21:46;;;;;;;14.95;3.75;;;15.20;71.90;;;;;;4827135;29;20058;-75
2022/11/17 07:24:11;;;;;;;21.25;3.45;;;15.20;72.20;;;;;;4829330;29;20054;-77
2022/11/17 07:26:37;;;;;;;15.98;3.05;;;15.20;72.30;;;;;;4844952;29;20058;-75
2022/11/17 07:29:03;;;;;;;13.25;2.92;;;15.20;72.30;;;;;;4848133;29;20057;-75
2022/11/17 07:31:29;;;;;;;9.40;2.40;;;15.20;72.10;;;;;;4846272;29;20385;-76
2022/11/17 07:33:54;;;;;;;12.10;2.53;;;15.20;71.70;;;;;;4848507;29;20128;-76
2022/11/17 07:36:20;;;;;;;10.60;2.35;;;15.20;71.40;;;;;;4854884;29;20192;-73
2022/11/17 07:38:47;;;;;;;9.30;2.55;;;15.20;71.20;;;;;;4872888;29;20427;-76
2022/11/17 07:41:13;;;;;;;13.68;2.67;;;15.20;71.00;;;;;;4856557;29;20049;-78
2022/11/17 07:43:39;;;;;;;6.18;2.25;;;15.20;71.00;;;;;;4872436;29;20146;-77
2022/11/17 07:46:07;;;;;;;16.63;2.60;;;15.10;70.90;;;;;;4871755;29;20053;-75
2022/11/17 07:48:33;;;;;;;10.73;2.20;;;15.10;71.10;;;;;;4871075;29;20501;-74
2022/11/17 07:51:00;;;;;;;6.90;2.35;;;15.10;71.10;;;;;;4873182;29;20049;-78
2022/11/17 07:53:25;;;;;;;10.02;2.15;;;15.10;71.30;;;;;;4871618;29;20072;-76
2022/11/17 07:55:51;;;;;;;12.38;2.20;;;15.10;71.40;;;;;;4869315;29;20460;-77
2022/11/17 07:58:17;;;;;;;7.15;2.00;;;15.00;71.40;;;;;;4867571;29;20325;-78
2022/11/17 08:00:46;;;;;;;6.82;2.00;;;14.90;70.20;;;;;;4868224;29;20049;-80
2022/11/17 08:03:11;;;;;;;4.65;1.50;;;14.70;70.20;;;;;;4861803;29;20053;-80
2022/11/17 08:05:38;;;;;;;6.53;1.80;;;14.60;70.90;;;;;;4846738;29;20129;-80
2022/11/17 08:08:06;;;;;;;8.15;2.28;;;14.40;71.70;;;;;;4863473;29;20132;-79
2022/11/17 08:10:33;;;;;;;5.40;1.63;;;14.30;72.20;;;;;;4860123;29;20513;-79
2022/11/17 08:12:59;;;;;;;8.48;1.92;;;14.30;72.50;;;;;;4846497;29;20089;-79
2022/11/17 08:15:27;;;;;;;6.72;1.67;;;14.20;72.90;;;;;;4862798;29;20117;-79
2022/11/17 08:17:54;;;;;;;4.20;1.30;;;14.20;73.20;;;;;;4862792;29;20124;-79
2022/11/17 08:20:21;;;;;;;5.03;1.38;;;14.10;73.40;;;;;;4856530;29;20597;-79
2022/11/17 08:22:49;;;;;;;9.55;2.00;;;14.10;73.60;;;;;;4862246;29;20365;-78
2022/11/17 08:25:14;;;;;;;6.63;1.35;;;14.10;73.90;;;;;;4862186;29;20057;-79
2022/11/17 08:27:40;;;;;;;4.65;1.60;;;14.10;74.00;;;;;;4862246;29;20053;-78
2022/11/17 08:30:08;;;;;;;2.25;1.40;;;14.10;74.10;;;;;;4861974;29;20054;-80
2022/11/17 08:32:34;;;;;;;3.42;1.40;;;14.10;74.30;;;;;;4844630;29;20062;-78
2022/11/17 08:35:02;;;;;;;5.82;1.75;;;14.00;74.40;;;;;;4857876;29;20063;-79
2022/11/17 08:37:29;;;;;;;4.30;1.95;;;14.00;74.50;;;;;;4862322;29;20464;-78
2022/11/17 08:39:55;;;;;;;3.20;1.48;;;14.00;74.60;;;;;;4862133;29;20378;-79
2022/11/17 08:42:21;;;;;;;3.08;1.08;;;14.00;74.70;;;;;;4861849;29;20048;-78
2022/11/17 08:44:46;;;;;;;2.70;1.00;;;14.00;74.70;;;;;;4862446;29;20049;-78
2022/11/17 08:47:12;;;;;;;2.10;0.93;;;14.00;74.80;;;;;;4863281;29;20060;-79
2022/11/17 08:49:38;;;;;;;7.63;1.52;;;14.00;74.90;;;;;;4862069;29;20392;-78
2022/11/17 08:52:04;;;;;;;5.07;1.40;;;14.00;74.80;;;;;;4862363;29;20042;-77
2022/11/17 08:54:29;;;;;;;3.50;1.38;;;14.10;74.80;;;;;;4862172;29;20477;-75
2022/11/17 08:56:58;;;;;;;3.17;1.40;;;14.10;74.80;;;;;;4862306;29;20132;-74
2022/11/17 08:59:25;;;;;;;3.88;1.48;;;14.10;74.60;;;;;;4865417;29;20465;-74
2022/11/17 09:01:51;;;;;;;4.75;2.20;;;14.20;73.90;;;;;;4865449;29;20559;-75
2022/11/17 09:04:17;;;;;;;3.97;1.90;;;14.20;70.20;;;;;;4866513;29;20045;-74
2022/11/17 09:06:43;;;;;;;3.03;2.00;;;14.00;68.00;;;;;;4864438;29;20068;-73
2022/11/17 09:09:08;;;;;;;6.82;1.90;;;13.80;68.40;;;;;;4866044;29;20045;-73
2022/11/17 09:11:34;;;;;;;2.42;1.83;;;13.80;69.50;;;;;;4866090;29;20077;-77
2022/11/17 09:14:00;;;;;;;6.72;2.35;;;13.80;70.10;;;;;;4864671;29;20046;-80
2022/11/17 09:16:26;;;;;;;9.02;3.33;;;13.80;70.70;;;;;;4850632;29;20129;-76
2022/11/17 09:18:57;;;;;;;5.07;2.20;;;13.90;72.50;;;;;;4866277;29;20485;-77
2022/11/17 09:21:24;;;;;;;7.75;1.83;;;14.10;72.60;;;;;;4865853;29;20100;-79
2022/11/17 09:23:51;;;;;;;9.63;1.45;;;14.40;71.80;;;;;;4865281;29;20060;-78
2022/11/17 09:26:17;;;;;;;6.32;1.35;;;14.60;71.60;;;;;;4849484;29;20049;-80
2022/11/17 09:28:44;;;;;;;6.80;1.52;;;15.00;71.50;;;;;;4865510;29;20472;-79
2022/11/17 09:31:13;;;;;;;6.95;1.60;;;15.20;71.30;;;;;;4865953;29;20461;-80
2022/11/17 09:33:38;;;;;;;6.32;1.00;;;15.30;71.10;;;;;;4834108;29;20054;-78
2022/11/17 09:36:06;;;;;;;16.50;1.90;;;15.50;71.10;;;;;;4865733;29;20037;-79
2022/11/17 09:38:32;;;;;;;11.05;1.67;;;15.50;71.10;;;;;;4865786;29;20045;-80
2022/11/17 09:40:59;;;;;;;8.43;1.10;;;15.60;71.20;;;;;;4865796;29;20057;-80
2022/11/17 09:43:29;;;;;;;7.18;1.27;;;15.60;71.30;;;;;;4863853;29;20054;-79
2022/11/17 09:46:47;;;;;;;5.63;1.20;;;15.60;71.40;;;;;;4848562;29;20129;-78
2022/11/17 09:49:34;;;;;;;12.80;1.20;;;15.60;71.40;;;;;;4814691;29;20058;-80
2022/11/17 09:52:11;;;;;;;8.55;1.33;;;15.70;71.30;;;;;;4848906;29;20346;-75
2022/11/17 09:54:52;;;;;;;4.75;1.38;;;15.60;71.20;;;;;;4847075;29;20132;-80
2022/11/17 09:57:39;;;;;;;8.80;1.17;;;15.60;71.40;;;;;;4821080;29;20140;-79
2022/11/17 10:00:11;;;;;;;10.32;1.40;;;15.70;71.50;;;;;;4830835;29;20050;-75
2022/11/17 10:02:37;;;;;;;10.50;1.30;;;15.70;71.50;;;;;;4857596;29;20090;-76
2022/11/17 10:09:15;;;;;;;9.93;1.38;;;15.80;71.40;;;;;;4864767;29;20054;-79
2022/11/17 10:11:42;;;;;;;6.65;1.17;;;15.80;72.10;;;;;;4864586;29;20464;-79
2022/11/17 10:14:11;;;;;;;8.50;1.40;;;15.90;71.10;;;;;;4865241;29;20049;-80
2022/11/17 10:16:39;;;;;;;5.75;1.20;;;16.00;70.20;;;;;;4865136;29;20461;-78
2022/11/17 10:19:20;;;;;;;7.18;1.10;;;16.00;69.70;;;;;;4833793;29;20140;-81
2022/11/17 10:21:51;;;;;;;8.18;1.30;;;16.20;69.60;;;;;;4848770;29;20346;-81
2022/11/17 10:24:38;;;;;;;8.75;0.82;;;16.30;69.60;;;;;;4849419;29;20406;-82
2022/11/17 10:27:16;;;;;;;5.65;0.85;;;16.40;69.40;;;;;;4865390;29;20103;-80
2022/11/17 10:30:01;;;;;;;5.55;0.82;;;16.50;69.90;;;;;;4833481;29;20155;-80
2022/11/17 10:32:30;;;;;;;8.55;1.17;;;16.60;69.30;;;;;;4848306;29;20374;-79
2022/11/17 10:35:11;;;;;;;5.47;0.70;;;16.70;69.20;;;;;;4864641;29;20140;-79
2022/11/17 10:37:42;;;;;;;4.63;0.70;;;16.80;69.30;;;;;;4864642;29;20049;-81
2022/11/17 10:40:16;;;;;;;6.95;0.98;;;16.80;69.30;;;;;;4848013;29;20049;-80
2022/11/17 10:42:54;;;;;;;4.22;0.90;;;16.80;69.30;;;;;;4864501;29;20045;-80
2022/11/17 10:45:20;;;;;;;5.30;0.82;;;16.80;69.50;;;;;;4848281;29;20045;-81
2022/11/17 10:47:46;;;;;;;3.53;0.60;;;16.80;69.70;;;;;;4864900;29;20350;-79
2022/11/17 10:50:24;;;;;;;6.05;0.80;;;16.70;69.70;;;;;;4848537;29;20384;-76
2022/11/17 10:52:53;;;;;;;8.90;1.02;;;16.70;69.80;;;;;;4864155;29;20048;-77
2022/11/17 10:55:23;;;;;;;8.18;0.90;;;16.70;69.40;;;;;;4864527;29;20477;-78
2022/11/17 10:58:04;;;;;;;5.32;1.23;;;16.70;68.80;;;;;;4864194;29;20172;-78
2022/11/17 11:00:32;;;;;;;6.60;0.90;;;16.60;68.50;;;;;;4864465;29;20065;-79
2022/11/17 11:03:06;;;;;;;9.25;1.05;;;16.50;68.80;;;;;;4863410;29;20480;-75
2022/11/17 11:05:31;;;;;;;7.72;1.10;;;16.50;69.20;;;;;;4863951;29;20088;-76
2022/11/17 11:08:16;;;;;;;3.72;0.70;;;16.40;69.20;;;;;;4862999;29;20200;-77
2022/11/17 11:10:45;;;;;;;4.68;0.70;;;16.40;68.60;;;;;;4863999;29;20076;-77
2022/11/17 11:13:26;;;;;;;4.63;0.60;;;16.40;68.20;;;;;;4863895;29;20103;-76
2022/11/17 11:15:52;;;;;;;2.72;0.73;;;16.30;67.80;;;;;;4863765;29;20062;-77
2022/11/17 11:18:19;;;;;;;2.85;0.70;;;16.20;68.00;;;;;;4864365;29;20045;-77
2022/11/17 11:20:55;;;;;;;1.10;0.63;;;16.20;68.40;;;;;;4847633;29;20058;-75
2022/11/17 11:23:55;;;;;;;3.33;0.88;;;16.10;68.30;;;;;;4846566;29;20064;-75
2022/11/17 11:26:58;;;;;;;5.38;0.90;;;16.10;68.40;;;;;;4864805;29;20057;-77
2022/11/17 11:29:49;;;;;;;1.52;0.50;;;16.00;68.70;;;;;;4863661;29;20056;-74
2022/11/17 11:32:35;;;;;;;2.95;0.52;;;16.00;68.90;;;;;;4862952;29;20125;-74
2022/11/17 11:35:26;;;;;;;1.17;0.47;;;16.00;68.70;;;;;;4863868;29;20109;-77
2022/11/17 11:38:29;;;;;;;2.03;0.57;;;15.90;67.30;;;;;;4863792;29;20372;-77
2022/11/17 11:41:16;;;;;;;1.10;0.77;;;15.90;67.70;;;;;;4847890;29;20121;-74
2022/11/17 11:43:54;;;;;;;9.45;0.88;;;15.80;68.00;;;;;;4862884;29;20057;-77
2022/11/17 11:46:51;;;;;;;2.60;0.70;;;15.80;68.00;;;;;;4863467;29;20049;-77
2022/11/17 11:49:44;;;;;;;0.93;0.63;;;15.80;67.70;;;;;;4853916;29;20061;-78
2022/11/17 11:52:17;;;;;;;2.70;0.50;;;15.70;67.40;;;;;;4863192;29;20053;-76
2022/11/17 11:54:54;;;;;;;1.38;0.80;;;15.70;67.60;;;;;;4863329;29;20429;-76
2022/11/17 11:57:31;;;;;;;1.52;0.50;;;15.60;67.60;;;;;;4847124;29;20061;-77
2022/11/17 12:00:13;;;;;;;2.00;0.40;;;15.60;68.00;;;;;;4847314;29;20050;-78
2022/11/17 12:03:09;;;;;;;1.00;0.50;;;15.60;67.80;;;;;;4862895;29;20053;-76
2022/11/17 12:05:48;;;;;;;1.27;0.40;;;15.50;68.00;;;;;;4863510;29;20469;-76
2022/11/17 12:08:19;;;;;;;0.80;0.50;;;15.50;68.30;;;;;;4872008;29;20100;-76
2022/11/17 12:13:55;;;;;;;1.92;0.50;;;15.40;68.60;;;;;;4844886;29;20135;-77
2022/11/17 12:16:32;;;;;;;1.08;0.45;;;15.40;68.80;;;;;;4828997;29;20058;-77
2022/11/17 12:18:57;;;;;;;1.38;0.40;;;15.40;69.00;;;;;;4829545;29;20386;-75
2022/11/17 12:21:25;;;;;;;0.52;0.28;;;15.40;69.20;;;;;;4854294;29;20064;-78
2022/11/17 12:24:17;;;;;;;1.23;0.40;;;15.40;69.30;;;;;;4862666;29;20514;-77
2022/11/17 12:26:43;;;;;;;1.45;0.40;;;15.40;69.40;;;;;;4863225;29;20045;-77
2022/11/17 12:29:18;;;;;;;1.90;0.30;;;15.40;69.70;;;;;;4846429;29;20057;-78
2022/11/17 12:31:45;;;;;;;2.50;0.38;;;15.40;70.40;;;;;;4846549;29;20136;-76
2022/11/17 12:34:14;;;;;;;2.75;0.40;;;15.40;69.90;;;;;;4846514;29;20065;-77
2022/11/17 12:36:40;;;;;;;4.10;0.45;;;15.40;70.10;;;;;;4862685;29;20045;-78
2022/11/17 12:39:44;;;;;;;2.65;0.45;;;15.30;70.20;;;;;;4862646;29;20357;-78
2022/11/17 12:42:09;;;;;;;1.65;0.52;;;15.30;70.30;;;;;;4861719;29;20112;-77
2022/11/17 12:49:33;;;;;;;2.72;0.60;;;15.40;70.00;;;;;;4862489;29;20513;-81
2022/11/17 12:52:08;;;;;;;2.13;0.40;;;15.30;69.90;;;;;;4783200;29;20054;-81
2022/11/17 12:54:46;;;;;;;3.53;1.13;;;15.30;69.90;;;;;;4813154;29;20052;-81
2022/11/17 12:57:15;;;;;;;9.27;0.63;;;15.30;70.20;;;;;;4828030;29;20054;-81
2022/11/17 13:00:06;;;;;;;5.35;0.60;;;15.30;70.40;;;;;;4827365;29;20061;-81
2022/11/17 13:02:45;;;;;;;1.63;0.45;;;15.30;70.50;;;;;;4830039;29;20049;-80
2022/11/17 13:05:26;;;;;;;6.70;0.50;;;15.20;71.10;;;;;;4845867;29;20065;-81
2022/11/17 13:08:17;;;;;;;5.97;0.75;;;15.20;70.50;;;;;;4831263;29;20046;-80
2022/11/17 13:10:46;;;;;;;2.90;0.50;;;15.20;70.50;;;;;;4830595;29;20457;-81
2022/11/17 13:13:15;;;;;;;4.75;0.73;;;15.20;70.50;;;;;;4842687;29;20077;-82
2022/11/17 13:15:42;;;;;;;5.00;0.60;;;15.20;70.60;;;;;;4843602;29;20038;-82
2022/11/17 13:18:26;;;;;;;6.72;0.73;;;15.20;70.60;;;;;;4828162;29;20067;-80
2022/11/17 13:20:54;;;;;;;2.85;0.40;;;15.20;70.60;;;;;;4831726;29;20385;-81
2022/11/17 13:23:26;;;;;;;5.95;0.50;;;15.20;70.70;;;;;;4830891;29;20050;-85
2022/11/17 13:26:09;;;;;;;4.15;0.73;;;15.20;70.70;;;;;;4845921;29;20046;-82
2022/11/17 13:28:37;;;;;;;4.07;0.50;;;15.20;70.70;;;;;;4845516;29;20046;-81
2022/11/17 13:31:15;;;;;;;2.58;0.30;;;15.20;70.80;;;;;;4830453;29;20057;-82
2022/11/17 13:33:41;;;;;;;6.15;0.50;;;15.20;70.80;;;;;;4846690;29;20130;-80
2022/11/17 13:36:23;;;;;;;1.55;0.40;;;15.20;70.90;;;;;;4846628;29;20056;-83
2022/11/17 13:38:51;;;;;;;1.02;0.40;;;15.20;70.90;;;;;;4830922;29;20148;-78
2022/11/17 13:41:34;;;;;;;4.93;0.63;;;15.20;70.90;;;;;;4845311;29;20064;-80
2022/11/17 13:44:07;;;;;;;2.55;0.50;;;15.20;71.00;;;;;;4846164;29;20097;-80
2022/11/17 13:46:34;;;;;;;8.32;1.27;;;15.10;71.00;;;;;;4848723;29;20061;-78
2022/11/17 13:49:45;;;;;;;14.35;1.30;;;15.10;71.20;;;;;;4848413;29;20064;-81
2022/11/17 13:52:32;;;;;;;7.25;0.80;;;15.20;71.90;;;;;;4849204;29;20413;-78
2022/11/17 13:55:04;;;;;;;8.82;1.33;;;15.30;72.20;;;;;;4865248;29;20055;-77
2022/11/17 13:57:30;;;;;;;6.15;0.90;;;15.50;72.00;;;;;;4833536;29;20105;-83
2022/11/17 13:59:59;;;;;;;8.77;1.00;;;15.60;72.00;;;;;;4833051;29;20045;-80
2022/11/17 14:02:28;;;;;;;10.40;1.38;;;15.60;72.00;;;;;;4848916;29;20116;-81
2022/11/17 14:05:20;;;;;;;5.05;0.77;;;15.70;72.10;;;;;;4848920;29;20041;-82
2022/11/17 14:07:46;;;;;;;4.63;0.75;;;15.40;72.60;;;;;;4833983;29;20105;-83
2022/11/17 14:10:21;;;;;;;6.55;1.48;;;15.20;73.40;;;;;;4833187;29;20406;-79
2022/11/17 14:12:50;;;;;;;16.60;2.47;;;15.10;74.50;;;;;;4864731;29;20365;-80
2022/11/17 14:15:24;;;;;;;9.23;1.58;;;15.10;75.10;;;;;;4848642;29;20061;-80
2022/11/17 14:17:52;;;;;;;7.80;1.73;;;15.20;75.40;;;;;;4848727;29;20505;-80
2022/11/17 14:20:38;;;;;;;6.95;1.77;;;15.30;74.70;;;;;;4863320;29;20058;-80
2022/11/17 14:23:07;;;;;;;9.40;1.70;;;15.40;74.40;;;;;;4848291;29;20144;-81
2022/11/17 14:25:40;;;;;;;9.13;1.70;;;15.50;74.20;;;;;;4864804;29;20406;-79
2022/11/17 14:28:17;;;;;;;12.13;1.55;;;15.50;74.30;;;;;;4864849;29;20509;-80
2022/11/17 14:30:46;;;;;;;6.63;1.42;;;15.60;75.10;;;;;;4848215;29;20057;-81
2022/11/17 14:33:12;;;;;;;6.78;1.27;;;15.60;74.40;;;;;;4864798;29;20057;-80
2022/11/17 14:35:38;;;;;;;6.90;1.25;;;15.70;74.40;;;;;;4864183;29;20041;-81
2022/11/17 14:38:04;;;;;;;4.88;1.13;;;15.70;74.40;;;;;;4848887;29;20065;-78
2022/11/17 14:40:29;;;;;;;5.82;0.95;;;15.70;74.40;;;;;;4848153;29;20120;-78
2022/11/17 14:42:55;;;;;;;9.02;1.90;;;15.80;74.50;;;;;;4863506;29;20053;-80
2022/11/17 14:45:21;;;;;;;6.55;1.20;;;15.80;74.50;;;;;;4848267;29;20438;-82
2022/11/17 14:47:47;;;;;;;12.75;1.65;;;15.80;74.70;;;;;;4864703;29;20052;-80
2022/11/17 14:50:16;;;;;;;13.77;1.85;;;15.80;74.70;;;;;;4863968;29;20495;-80
2022/11/17 14:52:43;;;;;;;9.50;2.00;;;15.90;74.70;;;;;;4864602;29;20061;-80
2022/11/17 14:55:11;;;;;;;11.27;1.42;;;15.90;74.50;;;;;;4832080;29;20069;-80
2022/11/17 14:57:36;;;;;;;10.07;1.33;;;16.00;74.30;;;;;;4831771;29;20085;-79
2022/11/17 15:00:05;;;;;;;12.68;1.63;;;16.10;74.00;;;;;;4848233;29;20049;-80
2022/11/17 15:02:31;;;;;;;8.18;1.30;;;16.20;74.10;;;;;;4832076;29;20059;-75
2022/11/17 15:04:58;;;;;;;11.40;1.27;;;16.30;73.90;;;;;;4864181;29;20041;-76
2022/11/17 15:07:24;;;;;;;9.18;0.85;;;16.30;73.60;;;;;;4864161;29;20349;-75
2022/11/17 15:09:50;;;;;;;6.65;0.80;;;16.40;73.00;;;;;;4864279;29;20353;-79
2022/11/17 15:12:16;;;;;;;7.38;1.00;;;16.40;72.30;;;;;;4864106;29;20044;-75
2022/11/17 15:14:41;;;;;;;11.65;1.25;;;16.30;71.90;;;;;;4848211;29;20041;-78
2022/11/17 15:17:07;;;;;;;13.52;1.35;;;16.30;72.60;;;;;;4847542;29;20038;-76
2022/11/17 15:19:35;;;;;;;10.75;1.20;;;16.30;72.20;;;;;;4848103;29;20106;-75
2022/11/17 15:22:01;;;;;;;6.25;0.95;;;16.30;72.30;;;;;;4847960;29;20057;-77
2022/11/17 15:24:26;;;;;;;13.75;1.40;;;16.30;72.50;;;;;;4847753;29;20075;-77
2022/11/17 15:26:52;;;;;;;11.55;1.08;;;16.30;72.60;;;;;;4847845;29;20057;-77
2022/11/17 15:29:18;;;;;;;8.48;1.40;;;16.30;72.80;;;;;;4847510;29;20061;-79
2022/11/17 15:31:43;;;;;;;12.00;1.52;;;16.30;72.90;;;;;;4847451;29;20140;-74
2022/11/17 15:34:10;;;;;;;11.02;1.42;;;16.40;73.00;;;;;;4862699;29;20148;-77
2022/11/17 15:36:36;;;;;;;12.75;1.40;;;16.40;73.00;;;;;;4863682;29;20053;-74
2022/11/17 15:39:02;;;;;;;9.95;0.80;;;16.40;73.10;;;;;;4847797;29;20374;-76
2022/11/17 15:41:27;;;;;;;11.68;1.20;;;16.40;73.00;;;;;;4864052;29;20065;-79
2022/11/17 15:43:56;;;;;;;19.98;1.40;;;16.40;72.60;;;;;;4864005;29;20066;-78
2022/11/17 15:46:27;;;;;;;14.07;1.33;;;16.40;72.50;;;;;;4846659;29;20381;-79
2022/11/17 15:48:54;;;;;;;11.70;1.42;;;16.40;72.60;;;;;;4843907;29;20038;-72
2022/11/17 15:51:31;;;;;;;17.40;1.80;;;16.40;72.70;;;;;;4829127;29;20050;-77
2022/11/17 15:54:01;;;;;;;8.57;1.63;;;16.40;72.90;;;;;;4829012;29;20430;-78
2022/11/17 15:56:42;;;;;;;15.50;1.48;;;16.30;72.90;;;;;;4850517;29;20041;-77
2022/11/17 15:59:13;;;;;;;16.02;1.67;;;16.30;73.30;;;;;;4827152;29;20359;-77
2022/11/17 16:01:40;;;;;;;11.88;1.75;;;16.30;73.50;;;;;;4831384;29;20102;-76
2022/11/17 16:04:11;;;;;;;10.13;1.05;;;16.30;73.70;;;;;;4846831;29;20096;-75
2022/11/17 16:06:38;;;;;;;21.67;1.90;;;16.30;74.10;;;;;;4846690;29;20037;-74
2022/11/17 16:09:08;;;;;;;18.63;1.95;;;16.20;74.10;;;;;;4862259;29;20068;-73
2022/11/17 16:11:35;;;;;;;17.75;2.53;;;16.20;74.30;;;;;;4846603;29;20049;-75
2022/11/17 16:14:01;;;;;;;15.43;1.38;;;16.20;74.50;;;;;;4863189;29;20132;-73
2022/11/17 16:16:29;;;;;;;15.35;2.47;;;16.20;74.70;;;;;;4846832;29;20064;-74
2022/11/17 16:18:56;;;;;;;17.83;2.13;;;16.20;74.80;;;;;;4862971;29;20545;-77
2022/11/17 16:21:24;;;;;;;14.70;2.42;;;16.10;74.60;;;;;;4862418;29;20042;-79
2022/11/17 16:24:00;;;;;;;12.40;2.13;;;16.10;74.50;;;;;;4831114;29;20050;-78
2022/11/17 16:26:27;;;;;;;16.52;2.15;;;16.10;74.90;;;;;;4831450;29;20060;-73
2022/11/17 16:28:57;;;;;;;16.05;1.70;;;16.10;74.70;;;;;;4862378;29;20402;-77
2022/11/17 17:12:12;;;;;;;2.38;0.47;;;15.50;73.30;;;;;;4823744;29;20075;-81
2022/11/17 18:18:16;;;;;;;1.85;0.30;;;14.60;75.20;;;;;;5890052;24;20029;31
2022/11/17 18:20:45;;;;;;;2.25;0.32;;;14.60;75.40;;;;;;4829066;29;20141;-82
2022/11/17 18:23:14;;;;;;;1.42;0.50;;;14.60;75.50;;;;;;4828739;29;20149;-82
2022/11/17 18:29:16;;;;;;;3.17;0.40;;;14.50;75.70;;;;;;4864541;29;20093;-80
2022/11/17 18:31:49;;;;;;;2.65;0.47;;;14.60;75.90;;;;;;4875797;29;20052;-82
2022/11/17 18:34:21;;;;;;;2.42;0.20;;;14.60;75.80;;;;;;4846113;29;20100;-77
2022/11/17 18:36:51;;;;;;;9.00;0.65;;;14.60;75.70;;;;;;4846323;29;20113;-77
2022/11/17 18:39:18;;;;;;;2.10;0.43;;;14.60;76.10;;;;;;4846319;29;20402;-77
2022/11/17 18:41:44;;;;;;;2.13;0.50;;;14.60;76.20;;;;;;4846515;29;20062;-79
2022/11/17 18:44:15;;;;;;;1.75;0.30;;;14.60;76.30;;;;;;4865869;29;20476;-77
2022/11/17 18:46:41;;;;;;;2.15;0.40;;;14.60;76.30;;;;;;4879003;29;20049;-77
2022/11/17 18:49:07;;;;;;;2.47;0.40;;;14.60;76.30;;;;;;4864547;29;20330;-80
2022/11/17 18:51:33;;;;;;;1.13;0.30;;;14.60;76.30;;;;;;4864452;29;20094;-76
2022/11/17 18:54:00;;;;;;;1.52;0.50;;;14.60;76.30;;;;;;4848639;29;20097;-79
2022/11/17 18:56:30;;;;;;;2.72;0.47;;;14.60;76.40;;;;;;4833093;29;20480;-79
2022/11/17 19:02:28;;;;;;;2.15;0.40;;;14.70;76.20;;;;;;4783273;29;20141;-79
2022/11/17 19:04:55;;;;;;;5.03;1.08;;;14.70;76.10;;;;;;4845477;29;20438;-75
2022/11/17 19:07:21;;;;;;;6.10;1.33;;;14.70;74.30;;;;;;4829590;29;20053;-82
2022/11/17 19:09:49;;;;;;;3.15;0.93;;;14.70;73.60;;;;;;4831253;29;20049;-78
2022/11/17 19:12:14;;;;;;;3.88;1.00;;;14.60;73.00;;;;;;4875001;29;20041;-75
2022/11/17 19:14:40;;;;;;;6.90;1.05;;;14.60;73.20;;;;;;4854480;29;20094;-75
2022/11/17 19:17:06;;;;;;;3.67;0.90;;;14.50;73.10;;;;;;4860242;29;20476;-76
2022/11/17 19:19:32;;;;;;;5.40;0.90;;;14.50;73.10;;;;;;4864214;29;20067;-78
2022/11/17 19:21:58;;;;;;;9.60;1.63;;;14.40;73.20;;;;;;4859598;29;20066;-79
2022/11/17 19:24:24;;;;;;;4.28;1.27;;;14.50;73.30;;;;;;4862584;29;20045;-77
2022/11/17 19:26:49;;;;;;;7.03;1.15;;;14.50;73.30;;;;;;4857342;29;20046;-76
2022/11/17 19:29:15;;;;;;;5.60;1.02;;;14.60;73.20;;;;;;4845377;29;20089;-76
2022/11/17 19:31:41;;;;;;;2.58;0.75;;;14.60;73.10;;;;;;4845629;29;20098;-75
2022/11/17 19:34:07;;;;;;;4.10;1.23;;;14.60;73.00;;;;;;4845269;29;20050;-76
2022/11/17 19:36:34;;;;;;;2.65;0.60;;;14.70;72.90;;;;;;4845564;29;20102;-77
2022/11/17 19:39:01;;;;;;;4.50;0.80;;;14.70;72.70;;;;;;4851448;29;20076;-76
2022/11/17 19:41:33;;;;;;;5.97;1.38;;;14.80;72.60;;;;;;4864049;29;20049;-74
2022/11/17 19:44:02;;;;;;;5.25;1.23;;;14.70;72.50;;;;;;4846891;29;20124;-73
2022/11/17 19:46:29;;;;;;;2.85;0.80;;;14.80;72.60;;;;;;4863485;29;20405;-74
2022/11/17 19:48:55;;;;;;;5.70;1.23;;;14.80;72.70;;;;;;4862410;29;20046;-72
2022/11/17 19:51:32;;;;;;;4.38;1.15;;;14.80;72.70;;;;;;4847265;29;20479;-76
2022/11/17 19:54:04;;;;;;;4.15;1.00;;;14.90;72.60;;;;;;4836904;29;20052;-77
2022/11/17 19:56:30;;;;;;;3.28;0.80;;;14.80;72.70;;;;;;4862996;29;20109;-78
2022/11/17 19:58:56;;;;;;;7.13;1.13;;;14.80;72.90;;;;;;4858038;29;20505;-78
2022/11/17 20:01:27;;;;;;;3.35;1.02;;;14.70;73.30;;;;;;4860151;29;20096;-77
2022/11/17 20:03:53;;;;;;;3.25;0.73;;;14.80;73.60;;;;;;4845248;29;20331;-77
2022/11/17 20:06:21;;;;;;;1.50;0.50;;;14.70;73.90;;;;;;4859387;29;20050;-77
2022/11/17 20:08:48;;;;;;;1.83;0.70;;;14.70;74.30;;;;;;4845424;29;20046;-78
2022/11/17 20:11:19;;;;;;;3.63;0.77;;;14.70;74.50;;;;;;4859134;29;20046;-77
2022/11/17 20:13:45;;;;;;;1.98;0.40;;;14.60;74.60;;;;;;4828767;29;20154;-77
2022/11/17 20:16:14;;;;;;;3.90;0.65;;;14.60;74.90;;;;;;4844594;29;20054;-78
2022/11/17 20:18:41;;;;;;;3.63;0.88;;;14.60;75.00;;;;;;4844717;29;20411;-77
2022/11/17 20:21:07;;;;;;;5.18;0.63;;;14.60;75.20;;;;;;4828236;29;20072;-78
2022/11/17 20:23:34;;;;;;;5.22;0.43;;;14.60;75.30;;;;;;4848600;29;20337;-78
2022/11/17 20:26:10;;;;;;;2.17;0.70;;;14.60;75.40;;;;;;4858620;29;20060;-78
2022/11/17 20:28:37;;;;;;;7.85;1.23;;;14.60;75.50;;;;;;4844268;29;20365;-78
2022/11/17 20:31:14;;;;;;;5.65;0.90;;;14.60;75.50;;;;;;4848331;29;20132;-76
2022/11/17 20:33:41;;;;;;;4.82;1.17;;;14.60;75.40;;;;;;4853830;29;20046;-76
2022/11/17 20:36:09;;;;;;;4.55;1.50;;;14.60;75.30;;;;;;4844992;29;20129;-76
2022/11/17 20:38:35;;;;;;;4.78;2.10;;;14.60;75.00;;;;;;4842762;29;20088;-75